createdAt,value
2023-01-06T00:01:23.303Z,1.90
2023-01-06T00:03:52.386Z,1.73
2023-01-06T00:06:27.670Z,2.17
2023-01-06T00:08:55.968Z,1.70
2023-01-06T00:11:24.265Z,1.87
2023-01-06T00:13:52.540Z,2.23
2023-01-06T00:16:22.056Z,1.90
2023-01-06T00:18:50.260Z,1.93
2023-01-06T00:21:18.265Z,1.73
2023-01-06T00:23:47.520Z,2.00
2023-01-06T00:26:15.335Z,2.00
2023-01-06T00:28:43.876Z,1.60
2023-01-06T00:31:13.499Z,1.80
2023-01-06T00:33:42.064Z,1.70
2023-01-06T00:36:11.965Z,1.83
2023-01-06T00:38:40.797Z,1.70
2023-01-06T00:41:25.374Z,1.77
2023-01-06T00:43:53.508Z,1.70
2023-01-06T00:46:21.433Z,1.70
2023-01-06T00:49:03.656Z,1.50
2023-01-06T00:51:32.661Z,1.97
2023-01-06T00:54:01.194Z,2.07
2023-01-06T00:56:30.398Z,1.80
2023-01-06T00:58:58.358Z,1.47
2023-01-06T01:01:26.466Z,1.50
2023-01-06T01:03:54.369Z,2.03
2023-01-06T01:06:22.871Z,2.00
2023-01-06T01:08:54.725Z,1.67
2023-01-06T01:11:37.039Z,1.70
2023-01-06T01:14:06.364Z,1.90
2023-01-06T01:16:34.261Z,1.80
2023-01-06T01:19:02.319Z,1.43
2023-01-06T01:21:30.254Z,1.40
2023-01-06T01:23:58.180Z,1.57
2023-01-06T01:26:26.024Z,1.60
2023-01-06T01:28:54.300Z,1.70
2023-01-06T01:31:23.728Z,1.60
2023-01-06T01:33:51.775Z,1.40
2023-01-06T01:36:20.455Z,1.77
2023-01-06T01:38:48.378Z,2.00
2023-01-06T01:41:18.489Z,2.00
2023-01-06T01:43:48.585Z,1.70
2023-01-06T01:46:22.728Z,1.47
2023-01-06T01:48:54.026Z,2.00
2023-01-06T01:51:27.836Z,1.40
2023-01-06T01:54:00.089Z,1.57
2023-01-06T01:56:33.354Z,1.70
2023-01-06T01:59:06.522Z,1.60
2023-01-06T02:01:35.036Z,1.43
2023-01-06T02:04:05.494Z,1.53
2023-01-06T02:06:34.058Z,1.67
2023-01-06T02:09:06.212Z,1.90
2023-01-06T02:11:37.031Z,1.50
2023-01-06T02:14:13.150Z,1.43
2023-01-06T02:17:04.940Z,1.53
2023-01-06T02:20:00.506Z,2.10
2023-01-06T02:22:51.177Z,1.20
2023-01-06T02:25:43.837Z,1.90
2023-01-06T02:28:49.891Z,1.87
2023-01-06T02:31:53.771Z,1.60
2023-01-06T02:34:32.936Z,1.80
2023-01-06T02:37:11.707Z,1.23
2023-01-06T02:39:46.234Z,1.37
2023-01-06T02:42:22.664Z,1.73
2023-01-06T02:45:04.338Z,1.70
2023-01-06T02:47:41.893Z,1.70
2023-01-06T02:50:19.899Z,1.20
2023-01-06T02:52:57.169Z,1.57
2023-01-06T02:55:30.790Z,1.30
2023-01-06T02:58:05.432Z,1.50
2023-01-06T03:00:36.009Z,1.50
2023-01-06T03:03:10.263Z,1.70
2023-01-06T03:05:39.366Z,1.97
2023-01-06T03:08:12.661Z,1.87
2023-01-06T03:10:43.317Z,1.80
2023-01-06T03:13:18.636Z,1.50
2023-01-06T03:15:46.739Z,1.10
2023-01-06T03:18:16.119Z,1.70
2023-01-06T03:20:44.183Z,1.80
2023-01-06T03:23:14.390Z,1.90
2023-01-06T03:25:42.422Z,1.50
2023-01-06T03:28:10.237Z,1.40
2023-01-06T03:30:48.946Z,1.70
2023-01-06T03:33:24.754Z,1.67
2023-01-06T03:36:05.191Z,2.60
2023-01-06T03:38:45.262Z,1.50
2023-01-06T03:41:23.551Z,1.60
2023-01-06T03:44:00.623Z,1.77
2023-01-06T03:46:34.907Z,2.07
2023-01-06T03:49:09.131Z,1.57
2023-01-06T03:51:48.207Z,1.80
2023-01-06T03:54:27.250Z,1.70
2023-01-06T03:57:04.116Z,1.70
2023-01-06T03:59:36.017Z,1.73
2023-01-06T04:02:05.762Z,1.80
2023-01-06T04:04:35.037Z,1.70
2023-01-06T04:07:02.827Z,1.87
2023-01-06T04:09:30.868Z,2.03
2023-01-06T04:12:16.413Z,2.20
2023-01-06T04:14:44.454Z,1.90
2023-01-06T04:17:13.684Z,1.80
2023-01-06T04:19:42.967Z,1.90
2023-01-06T04:22:11.003Z,1.97
2023-01-06T04:24:38.838Z,1.63
2023-01-06T04:27:06.701Z,2.00
2023-01-06T04:29:34.759Z,1.47
2023-01-06T04:32:02.610Z,2.17
2023-01-06T04:34:30.431Z,1.73
2023-01-06T04:36:59.861Z,1.23
2023-01-06T04:39:27.790Z,2.17
2023-01-06T04:41:55.627Z,1.27
2023-01-06T04:44:23.713Z,1.70
2023-01-06T04:46:51.675Z,1.33
2023-01-06T04:49:19.500Z,1.87
2023-01-06T04:51:47.486Z,1.63
2023-01-06T04:54:17.531Z,1.83
2023-01-06T04:56:45.372Z,1.80
2023-01-06T04:59:13.525Z,1.60
2023-01-06T05:01:41.893Z,2.07
2023-01-06T05:04:09.837Z,1.73
2023-01-06T05:06:39.497Z,1.70
2023-01-06T05:09:07.526Z,1.30
2023-01-06T05:11:36.711Z,1.33
2023-01-06T05:14:04.656Z,1.53
2023-01-06T05:16:33.938Z,1.87
2023-01-06T05:19:02.249Z,1.70
2023-01-06T05:21:32.835Z,1.30
2023-01-06T05:24:01.369Z,1.33
2023-01-06T05:26:29.942Z,1.40
2023-01-06T05:28:59.300Z,1.40
2023-01-06T05:31:27.378Z,1.63
2023-01-06T05:33:55.257Z,1.53
2023-01-06T05:36:23.244Z,1.60
2023-01-06T05:38:55.180Z,1.60
2023-01-06T05:41:23.374Z,1.50
2023-01-06T05:43:51.329Z,1.80
2023-01-06T05:46:20.721Z,1.80
2023-01-06T05:48:48.617Z,1.30
2023-01-06T05:51:17.469Z,1.57
2023-01-06T05:53:48.414Z,1.57
2023-01-06T05:56:17.924Z,2.03
2023-01-06T05:58:47.307Z,1.57
2023-01-06T06:01:21.393Z,1.40
2023-01-06T06:03:49.424Z,1.53
2023-01-06T06:06:18.664Z,1.60
2023-01-06T06:08:46.670Z,1.30
2023-01-06T06:11:16.310Z,1.80
2023-01-06T06:13:47.557Z,1.80
2023-01-06T06:16:17.192Z,1.60
2023-01-06T06:18:51.200Z,1.67
2023-01-06T06:21:21.103Z,1.50
2023-01-06T06:23:49.256Z,1.43
2023-01-06T06:26:17.622Z,1.63
2023-01-06T06:28:45.599Z,2.00
2023-01-06T06:31:15.666Z,1.90
2023-01-06T06:33:43.712Z,2.10
2023-01-06T06:36:16.783Z,1.97
2023-01-06T06:38:45.605Z,1.90
2023-01-06T06:41:14.284Z,2.10
2023-01-06T06:43:43.239Z,1.67
2023-01-06T06:46:12.279Z,2.13
2023-01-06T06:48:40.652Z,2.03
2023-01-06T06:51:10.395Z,2.10
2023-01-06T06:53:41.066Z,2.10
2023-01-06T06:56:10.462Z,1.93
2023-01-06T06:58:39.339Z,1.80
2023-01-06T07:01:08.086Z,1.87
2023-01-06T07:03:36.200Z,1.73
2023-01-06T07:06:05.445Z,2.27
2023-01-06T07:08:34.383Z,2.37
2023-01-06T07:11:06.521Z,2.30
2023-01-06T07:13:34.364Z,1.83
2023-01-06T07:16:02.478Z,2.20
2023-01-06T07:18:30.431Z,1.80
2023-01-06T07:20:58.427Z,2.30
2023-01-06T07:23:26.976Z,2.00
2023-01-06T07:25:55.922Z,2.03
2023-01-06T07:28:25.689Z,1.60
2023-01-06T07:30:54.320Z,1.63
2023-01-06T07:33:23.058Z,1.50
2023-01-06T07:35:54.416Z,1.63
2023-01-06T07:38:22.792Z,1.97
2023-01-06T07:40:51.071Z,1.60
2023-01-06T07:43:19.146Z,2.17
2023-01-06T07:45:49.425Z,1.80
2023-01-06T07:48:17.885Z,1.63
2023-01-06T07:50:46.183Z,2.20
2023-01-06T07:53:14.535Z,1.80
2023-01-06T07:55:42.461Z,1.60
2023-01-06T07:58:11.004Z,1.60
2023-01-06T08:00:39.139Z,1.80
2023-01-06T08:03:08.846Z,1.60
2023-01-06T08:05:38.407Z,1.67
2023-01-06T08:08:06.549Z,1.67
2023-01-06T08:10:34.565Z,1.90
2023-01-06T08:13:02.456Z,1.57
2023-01-06T08:15:30.469Z,1.50
2023-01-06T08:17:58.416Z,1.83
2023-01-06T08:20:28.113Z,1.90
2023-01-06T08:22:56.166Z,2.27
2023-01-06T08:25:24.063Z,1.83
2023-01-06T08:27:52.025Z,2.37
2023-01-06T08:30:21.520Z,2.23
2023-01-06T08:32:49.695Z,2.07
2023-01-06T08:35:18.245Z,2.63
2023-01-06T08:37:47.658Z,2.27
2023-01-06T08:40:15.716Z,2.77
2023-01-06T08:42:43.588Z,2.43
2023-01-06T08:45:13.226Z,2.07
2023-01-06T08:47:41.343Z,1.90
2023-01-06T08:50:09.740Z,2.10
2023-01-06T08:52:37.976Z,2.60
2023-01-06T08:55:07.563Z,2.27
2023-01-06T08:57:35.618Z,2.20
2023-01-06T09:00:04.084Z,1.83
2023-01-06T09:02:32.515Z,2.23
2023-01-06T09:05:00.664Z,1.80
2023-01-06T09:07:28.681Z,1.80
2023-01-06T09:09:56.676Z,1.90
2023-01-06T09:12:26.174Z,2.00
2023-01-06T09:14:54.305Z,1.80
2023-01-06T09:17:22.501Z,1.60
2023-01-06T09:19:50.580Z,1.50
2023-01-06T09:22:18.591Z,1.83
2023-01-06T09:24:46.457Z,1.57
2023-01-06T09:27:14.477Z,1.93
2023-01-06T09:29:43.919Z,1.90
2023-01-06T09:32:11.832Z,1.73
2023-01-06T09:34:39.888Z,1.70
2023-01-06T09:37:10.879Z,1.80
2023-01-06T09:39:38.723Z,1.60
2023-01-06T09:42:38.088Z,1.23
2023-01-06T09:45:12.781Z,1.63
2023-01-06T09:47:45.753Z,2.00
2023-01-06T09:50:22.732Z,1.53
2023-01-06T09:52:55.663Z,1.83
2023-01-06T09:55:32.335Z,1.73
2023-01-06T09:58:04.554Z,1.73
2023-01-06T10:00:37.947Z,2.20
2023-01-06T10:03:06.817Z,1.60
2023-01-06T10:05:42.837Z,1.87
2023-01-06T10:08:18.364Z,1.67
2023-01-06T10:10:55.408Z,1.83
2023-01-06T10:13:40.450Z,1.57
2023-01-06T10:16:17.656Z,1.90
2023-01-06T10:18:56.203Z,1.97
2023-01-06T10:21:32.463Z,1.90
2023-01-06T10:24:26.482Z,1.50
2023-01-06T10:26:58.965Z,1.60
2023-01-06T10:29:35.237Z,1.60
2023-01-06T10:32:07.478Z,1.83
2023-01-06T10:34:36.141Z,1.57
2023-01-06T10:37:14.114Z,1.80
2023-01-06T10:39:45.904Z,1.53
2023-01-06T10:42:47.076Z,1.73
2023-01-06T10:45:21.672Z,1.70
2023-01-06T10:47:52.458Z,1.70
2023-01-06T10:50:20.740Z,1.80
2023-01-06T10:52:49.793Z,1.87
2023-01-06T10:55:37.997Z,1.70
2023-01-06T10:58:15.687Z,1.90
2023-01-06T11:00:57.165Z,1.37
2023-01-06T11:03:35.261Z,1.90
2023-01-06T11:06:07.933Z,2.00
2023-01-06T11:08:37.128Z,1.97
2023-01-06T11:11:16.652Z,2.30
2023-01-06T11:13:58.164Z,1.90
2023-01-06T11:16:29.067Z,2.27
2023-01-06T11:19:01.413Z,2.03
2023-01-06T11:21:40.082Z,2.37
2023-01-06T11:24:18.804Z,2.47
2023-01-06T11:26:53.276Z,2.87
2023-01-06T11:29:28.090Z,2.60
2023-01-06T11:31:57.508Z,2.27
2023-01-06T11:34:29.119Z,2.27
2023-01-06T11:36:58.115Z,2.60
2023-01-06T11:39:30.076Z,2.90
2023-01-06T11:42:04.158Z,2.83
2023-01-06T11:44:35.289Z,2.67
2023-01-06T11:47:06.436Z,2.73
2023-01-06T11:49:40.594Z,2.83
2023-01-06T11:52:21.693Z,2.90
2023-01-06T11:54:59.152Z,2.70
2023-01-06T11:57:33.900Z,2.93
2023-01-06T12:00:23.935Z,3.03
2023-01-06T12:02:58.850Z,2.57
2023-01-06T12:05:37.084Z,2.93
2023-01-06T12:08:12.873Z,3.27
2023-01-06T12:10:44.435Z,3.13
2023-01-06T12:13:14.106Z,2.70
2023-01-06T12:15:46.627Z,3.07
2023-01-06T12:18:20.926Z,2.93
2023-01-06T12:20:52.865Z,3.37
2023-01-06T12:23:25.142Z,2.63
2023-01-06T12:25:56.272Z,3.10
2023-01-06T12:28:28.237Z,2.50
2023-01-06T12:31:03.790Z,2.70
2023-01-06T12:33:36.996Z,2.40
2023-01-06T12:36:13.329Z,2.20
2023-01-06T12:38:50.740Z,2.60
2023-01-06T12:41:24.827Z,2.13
2023-01-06T12:43:59.962Z,1.87
2023-01-06T12:46:33.688Z,2.10
2023-01-06T12:49:05.937Z,2.40
2023-01-06T12:51:42.130Z,1.73
2023-01-06T12:54:15.931Z,2.20
2023-01-06T12:57:03.475Z,1.93
2023-01-06T12:59:40.707Z,2.03
2023-01-06T13:02:25.313Z,1.90
2023-01-06T13:05:26.302Z,2.00
2023-01-06T13:08:08.666Z,1.90
2023-01-06T13:10:40.818Z,1.73
2023-01-06T13:13:31.262Z,2.17
2023-01-06T13:16:06.031Z,1.60
2023-01-06T13:18:39.591Z,1.90
2023-01-06T13:21:10.964Z,2.10
2023-01-06T13:23:59.539Z,1.70
2023-01-06T13:26:43.720Z,1.70
2023-01-06T13:29:22.448Z,1.57
2023-01-06T13:32:19.701Z,2.10
2023-01-06T13:35:03.613Z,2.13
2023-01-06T13:37:36.326Z,2.00
2023-01-06T13:40:11.424Z,2.17
2023-01-06T13:42:43.519Z,1.93
2023-01-06T13:45:18.581Z,2.10
2023-01-06T13:47:48.023Z,1.73
2023-01-06T13:50:18.471Z,1.90
2023-01-06T13:52:47.037Z,2.03
2023-01-06T13:55:29.495Z,1.90
2023-01-06T13:57:57.608Z,1.93
2023-01-06T14:00:28.239Z,1.80
2023-01-06T14:03:27.835Z,2.23
2023-01-06T14:05:57.480Z,2.00
2023-01-06T14:08:30.599Z,1.90
2023-01-06T14:11:22.347Z,1.93
2023-01-06T14:13:55.202Z,1.93
2023-01-06T14:16:39.202Z,1.83
2023-01-06T14:19:09.562Z,1.77
2023-01-06T14:21:37.674Z,1.73
2023-01-06T14:24:07.722Z,1.80
2023-01-06T14:26:53.125Z,1.87
2023-01-06T14:30:03.720Z,2.40
2023-01-06T14:33:17.431Z,1.70
2023-01-06T14:35:47.282Z,3.23
2023-01-06T14:38:25.296Z,2.30
2023-01-06T14:40:58.719Z,1.97
2023-01-06T14:43:35.875Z,1.73
2023-01-06T14:46:11.003Z,2.20
2023-01-06T14:48:45.553Z,1.90
2023-01-06T14:51:19.823Z,2.27
2023-01-06T14:53:53.666Z,2.10
2023-01-06T14:56:25.272Z,1.67
2023-01-06T14:59:04.201Z,2.00
2023-01-06T15:01:38.352Z,2.17
2023-01-06T15:04:08.184Z,2.33
2023-01-06T15:06:36.112Z,2.00
2023-01-06T15:09:19.312Z,2.27
2023-01-06T15:11:47.713Z,2.37
2023-01-06T15:14:34.475Z,2.20
2023-01-06T15:17:05.121Z,2.23
2023-01-06T15:19:33.486Z,1.60
2023-01-06T15:22:03.299Z,1.93
2023-01-06T15:24:32.762Z,1.80
2023-01-06T15:27:06.686Z,1.50
2023-01-06T15:29:36.158Z,1.53
2023-01-06T15:32:05.494Z,1.83
2023-01-06T15:34:36.768Z,2.57
2023-01-06T15:37:09.334Z,1.67
2023-01-06T15:39:39.872Z,2.13
2023-01-06T15:42:10.696Z,1.60
2023-01-06T15:44:40.838Z,1.73
2023-01-06T15:47:30.831Z,1.30
2023-01-06T15:50:02.699Z,1.50
2023-01-06T15:52:33.947Z,2.07
2023-01-06T15:55:05.195Z,2.40
2023-01-06T15:57:36.961Z,2.17
2023-01-06T16:00:19.798Z,1.67
2023-01-06T16:02:48.866Z,1.57
2023-01-06T16:05:35.455Z,1.80
2023-01-06T16:08:04.416Z,2.10
2023-01-06T16:10:34.755Z,1.90
2023-01-06T16:13:22.423Z,1.73
2023-01-06T16:15:54.608Z,2.00
2023-01-06T16:18:31.417Z,2.00
2023-01-06T16:21:01.308Z,1.80
2023-01-06T16:23:33.854Z,2.40
2023-01-06T16:26:15.478Z,2.10
2023-01-06T16:28:47.910Z,2.03
2023-01-06T16:31:30.428Z,2.13
2023-01-06T16:34:16.297Z,1.90
2023-01-06T16:36:44.315Z,2.07
2023-01-06T16:39:12.240Z,2.20
2023-01-06T16:41:42.851Z,1.63
2023-01-06T16:44:11.498Z,2.10
2023-01-06T16:46:40.828Z,2.80
2023-01-06T16:49:11.729Z,4.20
2023-01-06T16:51:40.256Z,3.37
2023-01-06T16:54:11.563Z,2.73
2023-01-06T16:56:39.994Z,2.00
2023-01-06T16:59:11.862Z,2.20
2023-01-06T17:01:41.618Z,2.70
2023-01-06T17:04:11.569Z,2.80
2023-01-06T17:06:40.725Z,2.63
2023-01-06T17:09:19.866Z,2.20
2023-01-06T17:11:48.831Z,2.20
2023-01-06T17:14:18.401Z,1.83
2023-01-06T17:16:48.506Z,1.90
2023-01-06T17:19:20.692Z,1.83
2023-01-06T17:21:50.208Z,2.27
2023-01-06T17:24:21.135Z,2.10
2023-01-06T17:26:52.585Z,2.23
2023-01-06T17:29:22.201Z,3.10
2023-01-06T17:31:54.171Z,2.13
2023-01-06T17:34:24.824Z,3.00
2023-01-06T17:36:56.694Z,3.90
2023-01-06T17:39:27.731Z,2.73
2023-01-06T17:42:02.744Z,4.83
2023-01-06T17:44:36.813Z,3.23
2023-01-06T17:47:24.975Z,3.80
2023-01-06T17:49:55.384Z,5.90
2023-01-06T17:52:24.954Z,4.23
2023-01-06T17:55:12.998Z,3.07
2023-01-06T17:57:43.981Z,3.03
2023-01-06T18:00:20.029Z,2.80
2023-01-06T18:02:54.451Z,2.70
2023-01-06T18:06:09.505Z,3.13
2023-01-06T18:08:38.738Z,3.17
2023-01-06T18:11:28.092Z,3.83
2023-01-06T18:13:56.384Z,3.40
2023-01-06T18:16:32.457Z,4.23
2023-01-06T18:19:21.948Z,2.67
2023-01-06T18:21:50.064Z,2.60
2023-01-06T18:24:23.230Z,3.67
2023-01-06T18:26:54.620Z,3.00
2023-01-06T18:29:25.571Z,2.93
2023-01-06T18:31:55.245Z,3.20
2023-01-06T18:34:36.335Z,2.20
2023-01-06T18:37:04.610Z,2.63
2023-01-06T18:39:38.984Z,4.13
2023-01-06T18:42:22.809Z,3.67
2023-01-06T18:44:52.326Z,3.83
2023-01-06T18:47:24.424Z,4.80
2023-01-06T18:49:58.190Z,3.30
2023-01-06T18:52:39.269Z,3.33
2023-01-06T18:55:20.367Z,2.80
2023-01-06T18:57:55.386Z,3.13
2023-01-06T19:00:48.697Z,3.10
2023-01-06T19:03:32.408Z,2.90
2023-01-06T19:06:20.506Z,3.40
2023-01-06T19:08:50.947Z,4.03
2023-01-06T19:11:20.993Z,3.23
2023-01-06T19:13:49.829Z,2.87
2023-01-06T19:16:36.736Z,2.70
2023-01-06T19:19:20.696Z,3.43
2023-01-06T19:21:50.030Z,3.00
2023-01-06T19:24:41.733Z,2.87
2023-01-06T19:27:35.943Z,3.30
2023-01-06T19:30:36.228Z,2.60
2023-01-06T19:33:36.334Z,3.17
2023-01-06T19:36:38.796Z,2.90
2023-01-06T19:39:23.864Z,2.90
2023-01-06T19:41:54.294Z,3.30
2023-01-06T19:44:32.043Z,4.10
2023-01-06T19:47:01.544Z,4.27
2023-01-06T19:49:38.683Z,2.77
2023-01-06T19:52:27.489Z,2.93
2023-01-06T19:54:57.251Z,3.57
2023-01-06T19:57:29.329Z,3.00
2023-01-06T19:59:59.714Z,4.03
2023-01-06T20:02:30.458Z,4.37
2023-01-06T20:04:58.898Z,4.20
2023-01-06T20:07:26.774Z,4.33
2023-01-06T20:09:56.290Z,3.93
2023-01-06T20:12:24.262Z,4.07
2023-01-06T20:14:52.155Z,4.83
2023-01-06T20:17:20.200Z,4.47
2023-01-06T20:19:48.159Z,3.80
2023-01-06T20:22:16.266Z,3.50
2023-01-06T20:24:44.371Z,4.20
2023-01-06T20:27:13.778Z,3.90
2023-01-06T20:29:41.672Z,3.37
2023-01-06T20:32:09.593Z,4.00
2023-01-06T20:34:37.657Z,3.97
2023-01-06T20:37:05.650Z,3.60
2023-01-06T20:39:33.736Z,4.20
2023-01-06T20:42:04.376Z,3.30
2023-01-06T20:44:33.823Z,3.43
2023-01-06T20:47:01.778Z,3.80
2023-01-06T20:49:29.725Z,3.43
2023-01-06T20:51:57.599Z,3.47
2023-01-06T20:54:25.572Z,3.87
2023-01-06T20:56:55.910Z,3.90
2023-01-06T20:59:23.793Z,4.17
2023-01-06T21:01:53.295Z,3.47
2023-01-06T21:04:21.343Z,3.77
2023-01-06T21:06:49.450Z,3.07
2023-01-06T21:09:17.441Z,3.70
2023-01-06T21:11:45.387Z,3.60
2023-01-06T21:14:13.209Z,3.17
2023-01-06T21:16:41.235Z,3.80
2023-01-06T21:19:10.826Z,3.47
2023-01-06T21:21:38.911Z,3.50
2023-01-06T21:24:07.389Z,3.90
2023-01-06T21:26:35.448Z,3.90
2023-01-06T21:29:03.292Z,3.80
2023-01-06T21:31:31.684Z,4.27
2023-01-06T21:33:59.605Z,4.57
2023-01-06T21:36:28.866Z,3.93
2023-01-06T21:38:56.827Z,4.23
2023-01-06T21:41:42.631Z,3.60
2023-01-06T21:44:10.580Z,3.83
2023-01-06T21:46:40.062Z,4.40
2023-01-06T21:49:09.621Z,4.20
2023-01-06T21:51:41.928Z,3.83
2023-01-06T21:54:09.801Z,3.73
2023-01-06T21:56:37.975Z,3.47
2023-01-06T21:59:07.508Z,4.17
2023-01-06T22:01:35.464Z,4.50
2023-01-06T22:04:03.392Z,4.23
2023-01-06T22:06:32.147Z,3.80
2023-01-06T22:09:05.800Z,4.37
2023-01-06T22:11:34.516Z,3.73
2023-01-06T22:14:05.490Z,4.60
2023-01-06T22:16:35.004Z,4.03
2023-01-06T22:19:03.187Z,4.30
2023-01-06T22:21:31.011Z,4.43
2023-01-06T22:23:59.047Z,4.27
2023-01-06T22:26:28.331Z,4.13
2023-01-06T22:28:56.138Z,4.33
2023-01-06T22:31:24.124Z,4.10
2023-01-06T22:33:52.029Z,4.53
2023-01-06T22:36:19.950Z,4.97
2023-01-06T22:38:47.922Z,4.00
2023-01-06T22:41:15.927Z,4.10
2023-01-06T22:43:45.130Z,4.13
2023-01-06T22:46:13.161Z,5.00
2023-01-06T22:48:41.147Z,4.83
2023-01-06T22:51:09.182Z,5.47
2023-01-06T22:53:37.231Z,4.60
2023-01-06T22:56:07.306Z,4.77
2023-01-06T22:58:36.337Z,4.73
2023-01-06T23:01:07.377Z,4.30
2023-01-06T23:03:36.020Z,5.20
2023-01-06T23:06:05.894Z,4.70
2023-01-06T23:08:40.602Z,5.00
2023-01-06T23:11:12.246Z,3.90
2023-01-06T23:13:41.690Z,4.77
2023-01-06T23:16:13.169Z,5.00
2023-01-06T23:18:42.463Z,4.73
2023-01-06T23:21:13.238Z,4.90
2023-01-06T23:23:42.722Z,4.20
2023-01-06T23:26:12.414Z,4.63
2023-01-06T23:28:40.847Z,4.70
2023-01-06T23:31:13.776Z,4.90
2023-01-06T23:33:42.934Z,5.10
2023-01-06T23:36:12.486Z,4.20
2023-01-06T23:38:40.512Z,4.37
2023-01-06T23:41:11.143Z,4.87
2023-01-06T23:43:40.434Z,5.23
2023-01-06T23:46:11.324Z,5.23
2023-01-06T23:48:41.499Z,4.20
2023-01-06T23:51:10.729Z,4.00
2023-01-06T23:53:39.692Z,4.50
2023-01-06T23:56:09.554Z,4.23
2023-01-06T23:58:38.841Z,4.67
